Souda — SVBH5 — position and weather

sailwx.info

Track history (hours):
 
Tides and Currents Weather Stations Pressure Air Temp Water Temp Dewpoint Dewpoint Depression Visibility Wind Speed Wind Dir Waves Ship Positions

Souda

Last reported at 2016-Feb-12 23:13 UTC. Time now 2016-Feb-13 23:43 UTC.
Position N 40°11' E 026°06'.

Length 88 m; draft 5 m.

Type: Tanker. MMSI: 241109000.

Date/timePositionNaut miles runAvg speedWind from/ knotsBaromVisibWave heightAir tempDewpointWater temp
2016-Feb-12 23:13N 40°11' E 026°06'5 7.1
2016-Feb-12 22:33N 40°16' E 026°05'35 2.2
2016-Feb-12 06:22N 40°50' E 025°55'23 0.7
2016-Feb-10 23:14N 40°31' E 025°39'4 0.1
2016-Feb-09 13:33N 40°32' E 025°34'19 8.2
2016-Feb-09 11:13N 40°39' E 025°11'5 8.2
2016-Feb-09 10:34N 40°42' E 025°04'8 8.4
2016-Feb-09 09:34N 40°45' E 024°54'8 8.0
2016-Feb-09 08:33N 40°49' E 024°45'7 7.2
2016-Feb-09 07:33N 40°52' E 024°36'6 6.1
2016-Feb-09 06:34N 40°57' E 024°33'0 0.1
2016-Feb-09 05:34N 40°57' E 024°33'0 0.0
2016-Feb-09 04:33N 40°57' E 024°33'0 0.0
2016-Feb-09 03:33N 40°57' E 024°33'0 0.0
2016-Feb-09 02:33N 40°57' E 024°33'0 0.0
2016-Feb-09 01:33N 40°57' E 024°33'0 0.0
2016-Feb-09 00:33N 40°57' E 024°33'0 0.0
2016-Feb-08 23:33N 40°57' E 024°33'0 0.0
2016-Feb-08 22:34N 40°57' E 024°33'0 0.0
2016-Feb-08 21:33N 40°57' E 024°33'0 0.0
2016-Feb-08 20:33N 40°57' E 024°33'0 0.0
2016-Feb-08 19:34N 40°57' E 024°33'0 0.0
2016-Feb-08 18:33N 40°57' E 024°33'0 0.0
2016-Feb-08 17:34N 40°57' E 024°33'0 0.0
2016-Feb-08 16:34N 40°57' E 024°33'0 0.0
2016-Feb-08 15:34N 40°57' E 024°33'0 0.0
2016-Feb-08 14:34N 40°57' E 024°33'0 0.0
2016-Feb-08 13:34N 40°57' E 024°33'0 0.0
2016-Feb-08 12:34N 40°57' E 024°33'0 0.0
2016-Feb-08 11:34N 40°57' E 024°33'0 0.0
2016-Feb-08 10:33N 40°57' E 024°33'2 1.9
2016-Feb-08 09:34N 40°56' E 024°31'0 0.4
2016-Feb-08 08:33N 40°56' E 024°30'0 0.2
2016-Feb-08 07:34N 40°56' E 024°30'0 0.3
2016-Feb-08 06:33N 40°57' E 024°31'1 1.4
2016-Feb-08 05:33N 40°55' E 024°32'8 7.8
2016-Feb-08 04:34N 40°50' E 024°39'8 7.8
2016-Feb-08 03:34N 40°47' E 024°48'8 8.2
2016-Feb-08 02:33N 40°45' E 024°59'8 8.2
2016-Feb-08 01:33N 40°42' E 025°09'252 5.0
2016-Feb-05 23:29N 43°53' E 028°52'7 8.0
2016-Feb-05 22:33N 44°00' E 028°52'8 8.2
2016-Feb-05 21:33N 44°09' E 028°51'7 7.2
2016-Feb-05 20:33N 44°14' E 028°45'7 6.5
2016-Feb-05 19:33N 44°20' E 028°40'0 0.0
2016-Feb-04 18:11N 44°20' E 028°40'2 2.7
2016-Feb-04 17:33N 44°19' E 028°42'5 4.9
2016-Feb-04 16:32N 44°15' E 028°46'5 4.5
2016-Feb-04 15:22N 44°10' E 028°49'0 0.0
2016-Feb-04 14:25N 44°10' E 028°49'0 0.0
2016-Feb-04 13:29N 44°10' E 028°49'0 0.0
2016-Feb-04 12:28N 44°10' E 028°49'0 0.1
2016-Feb-04 11:28N 44°10' E 028°49'0 0.0
2016-Feb-04 10:32N 44°10' E 028°49'0 0.1
2016-Feb-04 09:31N 44°10' E 028°49'0 0.1
2016-Feb-04 08:31N 44°10' E 028°49'0 0.0
2016-Feb-04 07:31N 44°10' E 028°49'0 0.0
2016-Feb-04 06:31N 44°10' E 028°49'0 0.0
2016-Feb-04 05:31N 44°10' E 028°49'0 0.0
2016-Feb-04 04:31N 44°10' E 028°49'0 0.0
2016-Feb-04 03:22N 44°10' E 028°49'0 0.0
2016-Feb-04 02:22N 44°10' E 028°49'0 0.0
2016-Feb-04 01:25N 44°10' E 028°49'0 0.0
2016-Feb-04 00:25N 44°10' E 028°49'0 0.0
2016-Feb-03 23:25N 44°10' E 028°49'0 0.0
2016-Feb-03 22:28N 44°10' E 028°49'0 0.0
2016-Feb-03 21:28N 44°10' E 028°49'0 0.0
2016-Feb-03 20:31N 44°10' E 028°49'0 0.0
2016-Feb-03 19:31N 44°10' E 028°49'0 0.0
2016-Feb-03 18:31N 44°10' E 028°49'0 0.0
2016-Feb-03 17:31N 44°10' E 028°49'0 0.0
2016-Feb-03 16:31N 44°10' E 028°49'0 0.0
2016-Feb-03 15:31N 44°10' E 028°49'0 0.0
2016-Feb-03 14:31N 44°10' E 028°49'0 0.0
2016-Feb-03 13:31N 44°10' E 028°49'0 0.0
2016-Feb-03 12:31N 44°10' E 028°49'0 0.0
2016-Feb-03 11:19N 44°10' E 028°49'0 0.0
2016-Feb-03 10:25N 44°10' E 028°49'0 0.0
2016-Feb-03 09:22N 44°10' E 028°49'0 0.0
2016-Feb-03 08:25N 44°10' E 028°49'0 0.0
2016-Feb-03 07:28N 44°10' E 028°49'0 0.0
2016-Feb-03 06:28N 44°10' E 028°49'0 0.0
2016-Feb-03 05:28N 44°10' E 028°49'0 0.0
2016-Feb-03 04:31N 44°10' E 028°49'0 0.0
2016-Feb-03 03:31N 44°10' E 028°49'0 0.0
2016-Feb-03 02:31N 44°10' E 028°49'0 0.0
2016-Feb-03 01:31N 44°10' E 028°49'0 0.0
2016-Feb-03 00:31N 44°10' E 028°49'0 0.0
2016-Feb-02 23:31N 44°10' E 028°49'  
Track history (hours):
 
Tides and Currents Weather Stations Pressure Air Temp Water Temp Dewpoint Dewpoint Depression Visibility Wind Speed Wind Dir Waves Ship Positions

Souda

Last reported at 2016-Feb-12 23:13 UTC. Time now 2016-Feb-13 23:43 UTC.
Position N 40°11' E 026°06'.

Length 88 m; draft 5 m.

Type: Tanker. MMSI: 241109000.

Date/timePositionNaut miles runAvg speedWind from/ knotsBaromVisibWave heightAir tempDewpointWater temp
2016-Feb-12 23:13N 40°11' E 026°06'5 7.1
2016-Feb-12 22:33N 40°16' E 026°05'35 2.2
2016-Feb-12 06:22N 40°50' E 025°55'23 0.7
2016-Feb-10 23:14N 40°31' E 025°39'4 0.1
2016-Feb-09 13:33N 40°32' E 025°34'19 8.2
2016-Feb-09 11:13N 40°39' E 025°11'5 8.2
2016-Feb-09 10:34N 40°42' E 025°04'8 8.4
2016-Feb-09 09:34N 40°45' E 024°54'8 8.0
2016-Feb-09 08:33N 40°49' E 024°45'7 7.2
2016-Feb-09 07:33N 40°52' E 024°36'6 6.1
2016-Feb-09 06:34N 40°57' E 024°33'0 0.1
2016-Feb-09 05:34N 40°57' E 024°33'0 0.0
2016-Feb-09 04:33N 40°57' E 024°33'0 0.0
2016-Feb-09 03:33N 40°57' E 024°33'0 0.0
2016-Feb-09 02:33N 40°57' E 024°33'0 0.0
2016-Feb-09 01:33N 40°57' E 024°33'0 0.0
2016-Feb-09 00:33N 40°57' E 024°33'0 0.0
2016-Feb-08 23:33N 40°57' E 024°33'0 0.0
2016-Feb-08 22:34N 40°57' E 024°33'0 0.0
2016-Feb-08 21:33N 40°57' E 024°33'0 0.0
2016-Feb-08 20:33N 40°57' E 024°33'0 0.0
2016-Feb-08 19:34N 40°57' E 024°33'0 0.0
2016-Feb-08 18:33N 40°57' E 024°33'0 0.0
2016-Feb-08 17:34N 40°57' E 024°33'0 0.0
2016-Feb-08 16:34N 40°57' E 024°33'0 0.0
2016-Feb-08 15:34N 40°57' E 024°33'0 0.0
2016-Feb-08 14:34N 40°57' E 024°33'0 0.0
2016-Feb-08 13:34N 40°57' E 024°33'0 0.0
2016-Feb-08 12:34N 40°57' E 024°33'0 0.0
2016-Feb-08 11:34N 40°57' E 024°33'0 0.0
2016-Feb-08 10:33N 40°57' E 024°33'2 1.9
2016-Feb-08 09:34N 40°56' E 024°31'0 0.4
2016-Feb-08 08:33N 40°56' E 024°30'0 0.2
2016-Feb-08 07:34N 40°56' E 024°30'0 0.3
2016-Feb-08 06:33N 40°57' E 024°31'1 1.4
2016-Feb-08 05:33N 40°55' E 024°32'8 7.8
2016-Feb-08 04:34N 40°50' E 024°39'8 7.8
2016-Feb-08 03:34N 40°47' E 024°48'8 8.2
2016-Feb-08 02:33N 40°45' E 024°59'8 8.2
2016-Feb-08 01:33N 40°42' E 025°09'252 5.0
2016-Feb-05 23:29N 43°53' E 028°52'7 8.0
2016-Feb-05 22:33N 44°00' E 028°52'8 8.2
2016-Feb-05 21:33N 44°09' E 028°51'7 7.2
2016-Feb-05 20:33N 44°14' E 028°45'7 6.5
2016-Feb-05 19:33N 44°20' E 028°40'0 0.0
2016-Feb-04 18:11N 44°20' E 028°40'2 2.7
2016-Feb-04 17:33N 44°19' E 028°42'5 4.9
2016-Feb-04 16:32N 44°15' E 028°46'5 4.5
2016-Feb-04 15:22N 44°10' E 028°49'0 0.0
2016-Feb-04 14:25N 44°10' E 028°49'0 0.0
2016-Feb-04 13:29N 44°10' E 028°49'0 0.0
2016-Feb-04 12:28N 44°10' E 028°49'0 0.1
2016-Feb-04 11:28N 44°10' E 028°49'0 0.0
2016-Feb-04 10:32N 44°10' E 028°49'0 0.1
2016-Feb-04 09:31N 44°10' E 028°49'0 0.1
2016-Feb-04 08:31N 44°10' E 028°49'0 0.0
2016-Feb-04 07:31N 44°10' E 028°49'0 0.0
2016-Feb-04 06:31N 44°10' E 028°49'0 0.0
2016-Feb-04 05:31N 44°10' E 028°49'0 0.0
2016-Feb-04 04:31N 44°10' E 028°49'0 0.0
2016-Feb-04 03:22N 44°10' E 028°49'0 0.0
2016-Feb-04 02:22N 44°10' E 028°49'0 0.0
2016-Feb-04 01:25N 44°10' E 028°49'0 0.0
2016-Feb-04 00:25N 44°10' E 028°49'0 0.0
2016-Feb-03 23:25N 44°10' E 028°49'0 0.0
2016-Feb-03 22:28N 44°10' E 028°49'0 0.0
2016-Feb-03 21:28N 44°10' E 028°49'0 0.0
2016-Feb-03 20:31N 44°10' E 028°49'0 0.0
2016-Feb-03 19:31N 44°10' E 028°49'0 0.0
2016-Feb-03 18:31N 44°10' E 028°49'0 0.0
2016-Feb-03 17:31N 44°10' E 028°49'0 0.0
2016-Feb-03 16:31N 44°10' E 028°49'0 0.0
2016-Feb-03 15:31N 44°10' E 028°49'0 0.0
2016-Feb-03 14:31N 44°10' E 028°49'0 0.0
2016-Feb-03 13:31N 44°10' E 028°49'0 0.0
2016-Feb-03 12:31N 44°10' E 028°49'0 0.0
2016-Feb-03 11:19N 44°10' E 028°49'0 0.0
2016-Feb-03 10:25N 44°10' E 028°49'0 0.0
2016-Feb-03 09:22N 44°10' E 028°49'0 0.0
2016-Feb-03 08:25N 44°10' E 028°49'0 0.0
2016-Feb-03 07:28N 44°10' E 028°49'0 0.0
2016-Feb-03 06:28N 44°10' E 028°49'0 0.0
2016-Feb-03 05:28N 44°10' E 028°49'0 0.0
2016-Feb-03 04:31N 44°10' E 028°49'0 0.0
2016-Feb-03 03:31N 44°10' E 028°49'0 0.0
2016-Feb-03 02:31N 44°10' E 028°49'0 0.0
2016-Feb-03 01:31N 44°10' E 028°49'0 0.0
2016-Feb-03 00:31N 44°10' E 028°49'0 0.0
2016-Feb-02 23:31N 44°10' E 028°49'  

Dump ship's entire track history